Terminal Aerodrome Forecast
Issued by NWS

Home | Current Version | Previous Version | Graphics & Text | Print | Product List | Glossary On
Versions: 1 2 3 4 5 6 7 8 9 10 11 12 13 14 15 16 17 18 19 20
000
FTUS43 KTOP 201139
TAFMHK
TAF
KMHK 201139Z 2012/2112 11003KT P6SM FEW200
     FM201500 14012G20KT P6SM SCT200
     FM210100 09008KT P6SM OVC100
     FM210800 10008KT 6SM -SHRA OVC040=

USA.gov is the U.S. government's official web portal to all federal, state and local government web resources and services.